KTPL/TPL METAR and TAF weather

Enter ICAO airport designator
Station Type Date Time Source
KTPL METAR 2021/01/16 01:51 UTC NOAA

KTPL 160151Z AUTO 27007KT 10SM CLR 08/M10 A3009 RMK AO2 SLP190 T00831100


Station Type Date Time Source
KTPL Decoded METAR 2021/01/16 01:51 UTC NOAA

Temple, Draughon-Miller Central Texas Regional Airport, TX, United States (KTPL) 31-09N 097-24W
Jan 15, 2021 - 08:51 PM EST / 2021.01.16 0151 UTC
Wind: from the W (270 degrees) at 8 MPH (7 KT):0
Visibility: 10 mile(s):0
Sky conditions: clear
Temperature: 46.9 F (8.3 C)
Dew Point: 14.0 F (-10.0 C)
Relative Humidity: 26%
Pressure (altimeter): 30.09 in. Hg (1018 hPa)
ob: KTPL 160151Z AUTO 27007KT 10SM CLR 08/M10 A3009 RMK AO2 SLP190 T00831100
cycle: 2

Station Type Date Time Source
KTPL TAF UTC NOAA

Error!

Example: see airport list